TAFOR
Diposting tanggal: 10 Juni 2019

Pukul : 06 - 18 UTC

Isi :

TAF WAGI 150500Z 1506/1518 13006KT 8000 -TSRA FEW011CB BKN012
TEMPO 1506/1509 18008KT 2000 TSRA FEW011CB BKN011
BECMG 1510/1512 6000 NSW BKN012=